sensor_id;sensor_type;location;lat;lon;timestamp;P1;durP1;ratioP1;P2;durP2;ratioP2
76292;SDS011;67256;51.154;4.164;2024-01-30T00:01:51;15.80;;;9.68;;
76292;SDS011;67256;51.154;4.164;2024-01-30T00:04:16;13.98;;;9.10;;
76292;SDS011;67256;51.154;4.164;2024-01-30T00:06:43;16.45;;;9.80;;
76292;SDS011;67256;51.154;4.164;2024-01-30T00:09:09;13.70;;;9.05;;
76292;SDS011;67256;51.154;4.164;2024-01-30T00:11:36;14.80;;;9.38;;
76292;SDS011;67256;51.154;4.164;2024-01-30T00:14:02;14.43;;;9.38;;
76292;SDS011;67256;51.154;4.164;2024-01-30T00:16:28;13.90;;;9.25;;
76292;SDS011;67256;51.154;4.164;2024-01-30T00:18:54;13.45;;;9.32;;
76292;SDS011;67256;51.154;4.164;2024-01-30T00:21:20;13.13;;;8.80;;
76292;SDS011;67256;51.154;4.164;2024-01-30T00:23:47;17.17;;;9.43;;
76292;SDS011;67256;51.154;4.164;2024-01-30T00:26:13;15.32;;;9.00;;
76292;SDS011;67256;51.154;4.164;2024-01-30T00:28:42;18.92;;;8.80;;
76292;SDS011;67256;51.154;4.164;2024-01-30T00:31:08;15.23;;;8.88;;
76292;SDS011;67256;51.154;4.164;2024-01-30T00:33:40;12.00;;;8.70;;
76292;SDS011;67256;51.154;4.164;2024-01-30T00:36:07;14.23;;;8.88;;
76292;SDS011;67256;51.154;4.164;2024-01-30T00:38:33;11.90;;;7.65;;
76292;SDS011;67256;51.154;4.164;2024-01-30T00:41:00;11.80;;;8.50;;
76292;SDS011;67256;51.154;4.164;2024-01-30T00:43:27;14.02;;;8.98;;
76292;SDS011;67256;51.154;4.164;2024-01-30T00:45:53;11.70;;;7.82;;
76292;SDS011;67256;51.154;4.164;2024-01-30T00:48:19;12.70;;;8.20;;
76292;SDS011;67256;51.154;4.164;2024-01-30T00:50:45;13.20;;;8.00;;
76292;SDS011;67256;51.154;4.164;2024-01-30T00:53:11;12.35;;;8.80;;
76292;SDS011;67256;51.154;4.164;2024-01-30T00:55:37;13.05;;;8.07;;
76292;SDS011;67256;51.154;4.164;2024-01-30T00:58:03;14.45;;;8.85;;
76292;SDS011;67256;51.154;4.164;2024-01-30T01:00:29;12.02;;;8.02;;
76292;SDS011;67256;51.154;4.164;2024-01-30T01:02:56;12.05;;;7.97;;
76292;SDS011;67256;51.154;4.164;2024-01-30T01:05:22;12.20;;;8.57;;
76292;SDS011;67256;51.154;4.164;2024-01-30T01:07:48;9.93;;;7.82;;
76292;SDS011;67256;51.154;4.164;2024-01-30T01:10:14;12.10;;;8.90;;
76292;SDS011;67256;51.154;4.164;2024-01-30T01:12:41;14.63;;;8.40;;
76292;SDS011;67256;51.154;4.164;2024-01-30T01:15:07;10.77;;;7.72;;
76292;SDS011;67256;51.154;4.164;2024-01-30T01:17:36;11.43;;;7.95;;
76292;SDS011;67256;51.154;4.164;2024-01-30T01:20:07;12.00;;;7.93;;
76292;SDS011;67256;51.154;4.164;2024-01-30T01:22:34;12.27;;;8.30;;
76292;SDS011;67256;51.154;4.164;2024-01-30T01:25:00;11.80;;;7.82;;
76292;SDS011;67256;51.154;4.164;2024-01-30T01:27:26;13.07;;;8.05;;
76292;SDS011;67256;51.154;4.164;2024-01-30T01:29:52;15.13;;;8.05;;
76292;SDS011;67256;51.154;4.164;2024-01-30T01:32:18;12.80;;;8.48;;
76292;SDS011;67256;51.154;4.164;2024-01-30T01:34:44;14.68;;;7.90;;
76292;SDS011;67256;51.154;4.164;2024-01-30T01:37:10;12.20;;;7.82;;
76292;SDS011;67256;51.154;4.164;2024-01-30T01:39:36;12.32;;;7.78;;
76292;SDS011;67256;51.154;4.164;2024-01-30T01:42:01;9.90;;;7.93;;
76292;SDS011;67256;51.154;4.164;2024-01-30T01:44:28;11.70;;;8.35;;
76292;SDS011;67256;51.154;4.164;2024-01-30T01:46:54;11.23;;;8.02;;
76292;SDS011;67256;51.154;4.164;2024-01-30T01:49:22;10.55;;;7.88;;
76292;SDS011;67256;51.154;4.164;2024-01-30T01:51:50;11.90;;;8.10;;
76292;SDS011;67256;51.154;4.164;2024-01-30T01:54:18;11.07;;;8.32;;
76292;SDS011;67256;51.154;4.164;2024-01-30T01:56:45;12.55;;;8.43;;
76292;SDS011;67256;51.154;4.164;2024-01-30T01:59:11;9.95;;;7.32;;
76292;SDS011;67256;51.154;4.164;2024-01-30T02:01:38;12.02;;;8.32;;
76292;SDS011;67256;51.154;4.164;2024-01-30T02:04:06;10.90;;;7.38;;
76292;SDS011;67256;51.154;4.164;2024-01-30T02:06:33;11.23;;;8.43;;
76292;SDS011;67256;51.154;4.164;2024-01-30T02:09:02;12.68;;;8.98;;
76292;SDS011;67256;51.154;4.164;2024-01-30T02:11:29;13.98;;;9.35;;
76292;SDS011;67256;51.154;4.164;2024-01-30T02:13:56;15.30;;;8.63;;
76292;SDS011;67256;51.154;4.164;2024-01-30T02:16:22;11.13;;;8.40;;
76292;SDS011;67256;51.154;4.164;2024-01-30T02:18:48;13.82;;;8.45;;
76292;SDS011;67256;51.154;4.164;2024-01-30T02:21:15;10.20;;;7.30;;
76292;SDS011;67256;51.154;4.164;2024-01-30T02:23:42;10.38;;;7.43;;
76292;SDS011;67256;51.154;4.164;2024-01-30T02:26:11;12.35;;;7.20;;
76292;SDS011;67256;51.154;4.164;2024-01-30T02:28:37;9.52;;;6.65;;
76292;SDS011;67256;51.154;4.164;2024-01-30T02:31:03;11.07;;;7.07;;
76292;SDS011;67256;51.154;4.164;2024-01-30T02:33:29;10.13;;;7.05;;
76292;SDS011;67256;51.154;4.164;2024-01-30T02:35:55;8.25;;;6.45;;
76292;SDS011;67256;51.154;4.164;2024-01-30T02:38:21;11.68;;;7.20;;
76292;SDS011;67256;51.154;4.164;2024-01-30T02:40:49;9.20;;;7.22;;
76292;SDS011;67256;51.154;4.164;2024-01-30T02:43:15;10.18;;;6.40;;
76292;SDS011;67256;51.154;4.164;2024-01-30T02:45:42;9.80;;;6.80;;
76292;SDS011;67256;51.154;4.164;2024-01-30T02:48:07;11.88;;;7.85;;
76292;SDS011;67256;51.154;4.164;2024-01-30T02:50:33;10.40;;;7.75;;
76292;SDS011;67256;51.154;4.164;2024-01-30T02:52:59;11.75;;;7.40;;
76292;SDS011;67256;51.154;4.164;2024-01-30T02:55:25;9.70;;;6.72;;
76292;SDS011;67256;51.154;4.164;2024-01-30T02:57:51;9.07;;;6.80;;
76292;SDS011;67256;51.154;4.164;2024-01-30T03:00:17;10.07;;;7.35;;
76292;SDS011;67256;51.154;4.164;2024-01-30T03:02:44;11.07;;;7.13;;
76292;SDS011;67256;51.154;4.164;2024-01-30T03:05:11;12.88;;;6.95;;
76292;SDS011;67256;51.154;4.164;2024-01-30T03:07:37;10.63;;;7.47;;
76292;SDS011;67256;51.154;4.164;2024-01-30T03:10:03;10.15;;;6.60;;
76292;SDS011;67256;51.154;4.164;2024-01-30T03:12:30;11.70;;;7.10;;
76292;SDS011;67256;51.154;4.164;2024-01-30T03:14:55;9.88;;;7.70;;
76292;SDS011;67256;51.154;4.164;2024-01-30T03:17:21;9.05;;;6.47;;
76292;SDS011;67256;51.154;4.164;2024-01-30T03:19:47;7.93;;;6.32;;
76292;SDS011;67256;51.154;4.164;2024-01-30T03:22:13;9.27;;;6.90;;
76292;SDS011;67256;51.154;4.164;2024-01-30T03:24:39;11.85;;;7.97;;
76292;SDS011;67256;51.154;4.164;2024-01-30T03:27:04;10.38;;;7.00;;
76292;SDS011;67256;51.154;4.164;2024-01-30T03:29:30;10.95;;;7.82;;
76292;SDS011;67256;51.154;4.164;2024-01-30T03:31:56;11.23;;;7.38;;
76292;SDS011;67256;51.154;4.164;2024-01-30T03:34:21;10.95;;;6.75;;
76292;SDS011;67256;51.154;4.164;2024-01-30T03:36:48;12.63;;;7.03;;
76292;SDS011;67256;51.154;4.164;2024-01-30T03:39:14;9.65;;;7.30;;
76292;SDS011;67256;51.154;4.164;2024-01-30T03:41:41;10.77;;;7.18;;
76292;SDS011;67256;51.154;4.164;2024-01-30T03:44:09;9.65;;;7.18;;
76292;SDS011;67256;51.154;4.164;2024-01-30T03:46:35;10.65;;;7.45;;
76292;SDS011;67256;51.154;4.164;2024-01-30T03:49:01;9.93;;;7.25;;
76292;SDS011;67256;51.154;4.164;2024-01-30T03:51:26;11.57;;;7.07;;
76292;SDS011;67256;51.154;4.164;2024-01-30T03:53:52;9.60;;;7.35;;
76292;SDS011;67256;51.154;4.164;2024-01-30T03:56:18;10.77;;;8.25;;
76292;SDS011;67256;51.154;4.164;2024-01-30T03:58:44;9.57;;;7.28;;
76292;SDS011;67256;51.154;4.164;2024-01-30T04:01:13;12.18;;;7.20;;
76292;SDS011;67256;51.154;4.164;2024-01-30T04:03:40;12.60;;;7.60;;
76292;SDS011;67256;51.154;4.164;2024-01-30T04:06:06;9.45;;;7.70;;
76292;SDS011;67256;51.154;4.164;2024-01-30T04:08:31;14.98;;;7.72;;
76292;SDS011;67256;51.154;4.164;2024-01-30T04:10:57;10.60;;;7.53;;
76292;SDS011;67256;51.154;4.164;2024-01-30T04:13:23;9.65;;;7.68;;
76292;SDS011;67256;51.154;4.164;2024-01-30T04:15:49;11.88;;;7.20;;
76292;SDS011;67256;51.154;4.164;2024-01-30T04:18:14;13.75;;;8.15;;
76292;SDS011;67256;51.154;4.164;2024-01-30T04:20:40;9.07;;;7.20;;
76292;SDS011;67256;51.154;4.164;2024-01-30T04:23:06;11.70;;;6.90;;
76292;SDS011;67256;51.154;4.164;2024-01-30T04:25:32;10.25;;;6.97;;
76292;SDS011;67256;51.154;4.164;2024-01-30T04:27:57;12.85;;;8.05;;
76292;SDS011;67256;51.154;4.164;2024-01-30T04:30:23;9.57;;;7.40;;
76292;SDS011;67256;51.154;4.164;2024-01-30T04:32:49;11.45;;;7.63;;
76292;SDS011;67256;51.154;4.164;2024-01-30T04:35:14;10.85;;;7.00;;
76292;SDS011;67256;51.154;4.164;2024-01-30T04:37:40;12.75;;;7.57;;
76292;SDS011;67256;51.154;4.164;2024-01-30T04:40:06;11.00;;;6.97;;
76292;SDS011;67256;51.154;4.164;2024-01-30T04:42:33;11.13;;;7.47;;
76292;SDS011;67256;51.154;4.164;2024-01-30T04:44:58;11.18;;;7.57;;
76292;SDS011;67256;51.154;4.164;2024-01-30T04:47:24;13.95;;;6.65;;
76292;SDS011;67256;51.154;4.164;2024-01-30T04:49:51;10.05;;;7.10;;
76292;SDS011;67256;51.154;4.164;2024-01-30T04:52:16;13.02;;;7.55;;
76292;SDS011;67256;51.154;4.164;2024-01-30T04:54:42;10.35;;;6.68;;
76292;SDS011;67256;51.154;4.164;2024-01-30T04:57:08;11.88;;;6.60;;
76292;SDS011;67256;51.154;4.164;2024-01-30T04:59:37;9.20;;;6.45;;
76292;SDS011;67256;51.154;4.164;2024-01-30T05:02:02;10.82;;;6.55;;
76292;SDS011;67256;51.154;4.164;2024-01-30T05:04:29;10.20;;;7.13;;
76292;SDS011;67256;51.154;4.164;2024-01-30T05:06:55;9.70;;;6.88;;
76292;SDS011;67256;51.154;4.164;2024-01-30T05:09:20;10.32;;;7.10;;
76292;SDS011;67256;51.154;4.164;2024-01-30T05:11:46;10.82;;;6.25;;
76292;SDS011;67256;51.154;4.164;2024-01-30T05:14:12;9.93;;;6.60;;
76292;SDS011;67256;51.154;4.164;2024-01-30T05:16:40;9.55;;;5.72;;
76292;SDS011;67256;51.154;4.164;2024-01-30T05:19:06;13.02;;;7.25;;
76292;SDS011;67256;51.154;4.164;2024-01-30T05:21:32;14.77;;;7.97;;
76292;SDS011;67256;51.154;4.164;2024-01-30T05:23:57;10.30;;;6.82;;
76292;SDS011;67256;51.154;4.164;2024-01-30T05:26:23;8.48;;;6.35;;
76292;SDS011;67256;51.154;4.164;2024-01-30T05:28:49;9.30;;;7.38;;
76292;SDS011;67256;51.154;4.164;2024-01-30T05:31:14;9.82;;;6.97;;
76292;SDS011;67256;51.154;4.164;2024-01-30T05:33:40;10.45;;;6.80;;
76292;SDS011;67256;51.154;4.164;2024-01-30T05:36:06;10.40;;;6.63;;
76292;SDS011;67256;51.154;4.164;2024-01-30T05:38:32;13.63;;;7.18;;
76292;SDS011;67256;51.154;4.164;2024-01-30T05:40:57;13.02;;;7.45;;
76292;SDS011;67256;51.154;4.164;2024-01-30T05:43:24;12.10;;;7.03;;
76292;SDS011;67256;51.154;4.164;2024-01-30T05:45:50;11.95;;;6.82;;
76292;SDS011;67256;51.154;4.164;2024-01-30T05:48:17;11.13;;;7.25;;
76292;SDS011;67256;51.154;4.164;2024-01-30T05:50:42;10.07;;;6.88;;
76292;SDS011;67256;51.154;4.164;2024-01-30T05:53:08;11.63;;;6.70;;
76292;SDS011;67256;51.154;4.164;2024-01-30T05:55:34;10.05;;;6.47;;
76292;SDS011;67256;51.154;4.164;2024-01-30T05:57:59;11.35;;;7.18;;
76292;SDS011;67256;51.154;4.164;2024-01-30T06:00:25;11.38;;;6.60;;
76292;SDS011;67256;51.154;4.164;2024-01-30T06:02:51;10.38;;;6.88;;
76292;SDS011;67256;51.154;4.164;2024-01-30T06:05:17;12.05;;;7.82;;
76292;SDS011;67256;51.154;4.164;2024-01-30T06:07:42;10.80;;;7.30;;
76292;SDS011;67256;51.154;4.164;2024-01-30T06:10:08;11.75;;;6.93;;
76292;SDS011;67256;51.154;4.164;2024-01-30T06:12:37;10.15;;;6.75;;
76292;SDS011;67256;51.154;4.164;2024-01-30T06:15:03;9.77;;;7.43;;
76292;SDS011;67256;51.154;4.164;2024-01-30T06:17:29;9.57;;;6.90;;
76292;SDS011;67256;51.154;4.164;2024-01-30T06:19:55;13.77;;;7.63;;
76292;SDS011;67256;51.154;4.164;2024-01-30T06:22:20;13.52;;;7.35;;
76292;SDS011;67256;51.154;4.164;2024-01-30T06:24:46;9.18;;;7.28;;
76292;SDS011;67256;51.154;4.164;2024-01-30T06:27:15;9.95;;;7.00;;
76292;SDS011;67256;51.154;4.164;2024-01-30T06:29:42;11.10;;;6.95;;
76292;SDS011;67256;51.154;4.164;2024-01-30T06:32:08;12.35;;;7.30;;
76292;SDS011;67256;51.154;4.164;2024-01-30T06:34:34;10.93;;;7.57;;
76292;SDS011;67256;51.154;4.164;2024-01-30T06:37:00;12.40;;;7.32;;
76292;SDS011;67256;51.154;4.164;2024-01-30T06:39:26;12.15;;;8.07;;
76292;SDS011;67256;51.154;4.164;2024-01-30T06:41:52;13.50;;;7.35;;
76292;SDS011;67256;51.154;4.164;2024-01-30T06:44:18;10.15;;;7.07;;
76292;SDS011;67256;51.154;4.164;2024-01-30T06:46:44;13.15;;;7.60;;
76292;SDS011;67256;51.154;4.164;2024-01-30T06:49:09;10.30;;;7.22;;
76292;SDS011;67256;51.154;4.164;2024-01-30T06:51:35;10.65;;;7.70;;
76292;SDS011;67256;51.154;4.164;2024-01-30T06:54:01;12.68;;;7.25;;
76292;SDS011;67256;51.154;4.164;2024-01-30T06:56:27;10.85;;;8.02;;
76292;SDS011;67256;51.154;4.164;2024-01-30T06:58:53;16.40;;;7.85;;
76292;SDS011;67256;51.154;4.164;2024-01-30T07:01:19;11.30;;;7.78;;
76292;SDS011;67256;51.154;4.164;2024-01-30T07:03:45;12.05;;;7.07;;
76292;SDS011;67256;51.154;4.164;2024-01-30T07:06:11;11.70;;;7.38;;
76292;SDS011;67256;51.154;4.164;2024-01-30T07:08:37;11.95;;;8.27;;
76292;SDS011;67256;51.154;4.164;2024-01-30T07:11:06;13.88;;;7.78;;
76292;SDS011;67256;51.154;4.164;2024-01-30T07:13:32;10.13;;;7.97;;
76292;SDS011;67256;51.154;4.164;2024-01-30T07:15:59;12.93;;;8.60;;
76292;SDS011;67256;51.154;4.164;2024-01-30T07:18:25;11.23;;;7.78;;
76292;SDS011;67256;51.154;4.164;2024-01-30T07:20:51;15.85;;;7.72;;
76292;SDS011;67256;51.154;4.164;2024-01-30T07:23:16;15.45;;;9.52;;
76292;SDS011;67256;51.154;4.164;2024-01-30T07:25:46;14.02;;;7.53;;
76292;SDS011;67256;51.154;4.164;2024-01-30T07:28:13;12.48;;;7.63;;
76292;SDS011;67256;51.154;4.164;2024-01-30T07:30:41;9.63;;;7.30;;
76292;SDS011;67256;51.154;4.164;2024-01-30T07:33:08;10.18;;;7.47;;
76292;SDS011;67256;51.154;4.164;2024-01-30T07:35:33;13.90;;;8.07;;
76292;SDS011;67256;51.154;4.164;2024-01-30T07:37:59;10.18;;;7.72;;
76292;SDS011;67256;51.154;4.164;2024-01-30T07:40:25;12.57;;;8.73;;
76292;SDS011;67256;51.154;4.164;2024-01-30T07:42:52;13.35;;;7.68;;
76292;SDS011;67256;51.154;4.164;2024-01-30T07:45:19;12.85;;;8.57;;
76292;SDS011;67256;51.154;4.164;2024-01-30T07:47:49;11.38;;;8.05;;
76292;SDS011;67256;51.154;4.164;2024-01-30T07:50:15;15.63;;;7.75;;
76292;SDS011;67256;51.154;4.164;2024-01-30T07:52:42;14.50;;;7.53;;
76292;SDS011;67256;51.154;4.164;2024-01-30T07:55:08;13.13;;;7.45;;
76292;SDS011;67256;51.154;4.164;2024-01-30T07:57:34;15.20;;;7.72;;
76292;SDS011;67256;51.154;4.164;2024-01-30T08:00:02;12.07;;;7.57;;
76292;SDS011;67256;51.154;4.164;2024-01-30T08:02:29;14.05;;;7.57;;
76292;SDS011;67256;51.154;4.164;2024-01-30T08:04:55;11.70;;;7.47;;
76292;SDS011;67256;51.154;4.164;2024-01-30T08:07:20;12.50;;;7.88;;
76292;SDS011;67256;51.154;4.164;2024-01-30T08:09:47;12.68;;;7.25;;
76292;SDS011;67256;51.154;4.164;2024-01-30T08:12:13;11.63;;;7.85;;
76292;SDS011;67256;51.154;4.164;2024-01-30T08:14:38;13.57;;;7.32;;
76292;SDS011;67256;51.154;4.164;2024-01-30T08:17:06;12.02;;;7.55;;
76292;SDS011;67256;51.154;4.164;2024-01-30T08:19:32;14.45;;;7.38;;
76292;SDS011;67256;51.154;4.164;2024-01-30T08:21:58;10.20;;;6.93;;
76292;SDS011;67256;51.154;4.164;2024-01-30T08:24:24;13.55;;;8.07;;
76292;SDS011;67256;51.154;4.164;2024-01-30T08:26:50;15.07;;;9.27;;
76292;SDS011;67256;51.154;4.164;2024-01-30T08:29:16;9.20;;;7.63;;
76292;SDS011;67256;51.154;4.164;2024-01-30T08:31:42;11.70;;;7.55;;
76292;SDS011;67256;51.154;4.164;2024-01-30T08:34:07;15.95;;;8.13;;
76292;SDS011;67256;51.154;4.164;2024-01-30T08:36:33;12.65;;;7.90;;
76292;SDS011;67256;51.154;4.164;2024-01-30T08:38:59;13.65;;;7.78;;
76292;SDS011;67256;51.154;4.164;2024-01-30T08:41:25;10.50;;;7.80;;
76292;SDS011;67256;51.154;4.164;2024-01-30T08:43:51;16.33;;;7.68;;
76292;SDS011;67256;51.154;4.164;2024-01-30T08:46:18;13.30;;;7.93;;
76292;SDS011;67256;51.154;4.164;2024-01-30T08:48:44;22.45;;;9.27;;
76292;SDS011;67256;51.154;4.164;2024-01-30T08:51:10;12.68;;;7.50;;
76292;SDS011;67256;51.154;4.164;2024-01-30T08:53:36;10.80;;;6.82;;
76292;SDS011;67256;51.154;4.164;2024-01-30T08:56:02;12.73;;;7.55;;
76292;SDS011;67256;51.154;4.164;2024-01-30T08:58:28;10.18;;;7.05;;
76292;SDS011;67256;51.154;4.164;2024-01-30T09:00:54;12.15;;;7.97;;
76292;SDS011;67256;51.154;4.164;2024-01-30T09:03:20;13.20;;;8.05;;
76292;SDS011;67256;51.154;4.164;2024-01-30T09:05:46;18.63;;;7.93;;
76292;SDS011;67256;51.154;4.164;2024-01-30T09:08:11;14.45;;;8.07;;
76292;SDS011;67256;51.154;4.164;2024-01-30T09:10:37;15.48;;;7.78;;
76292;SDS011;67256;51.154;4.164;2024-01-30T09:13:03;15.60;;;7.97;;
76292;SDS011;67256;51.154;4.164;2024-01-30T09:15:28;13.73;;;8.35;;
76292;SDS011;67256;51.154;4.164;2024-01-30T09:17:54;17.00;;;7.93;;
76292;SDS011;67256;51.154;4.164;2024-01-30T09:20:20;12.50;;;7.90;;
76292;SDS011;67256;51.154;4.164;2024-01-30T09:22:47;12.52;;;7.95;;
76292;SDS011;67256;51.154;4.164;2024-01-30T09:25:14;17.00;;;8.20;;
76292;SDS011;67256;51.154;4.164;2024-01-30T09:27:40;12.88;;;8.15;;
76292;SDS011;67256;51.154;4.164;2024-01-30T09:30:06;13.10;;;8.07;;
76292;SDS011;67256;51.154;4.164;2024-01-30T09:32:32;14.25;;;9.45;;
76292;SDS011;67256;51.154;4.164;2024-01-30T09:34:58;17.25;;;8.77;;
76292;SDS011;67256;51.154;4.164;2024-01-30T09:37:23;13.98;;;8.32;;
76292;SDS011;67256;51.154;4.164;2024-01-30T09:39:49;20.92;;;9.18;;
76292;SDS011;67256;51.154;4.164;2024-01-30T09:45:03;12.98;;;8.70;;
76292;SDS011;67256;51.154;4.164;2024-01-30T09:47:31;15.43;;;9.10;;
76292;SDS011;67256;51.154;4.164;2024-01-30T09:49:59;16.42;;;8.48;;
76292;SDS011;67256;51.154;4.164;2024-01-30T09:54:55;10.38;;;6.90;;
76292;SDS011;67256;51.154;4.164;2024-01-30T09:57:21;11.40;;;7.30;;
76292;SDS011;67256;51.154;4.164;2024-01-30T09:59:46;15.23;;;8.27;;
76292;SDS011;67256;51.154;4.164;2024-01-30T10:02:13;14.70;;;7.78;;
76292;SDS011;67256;51.154;4.164;2024-01-30T10:04:38;13.38;;;7.90;;
76292;SDS011;67256;51.154;4.164;2024-01-30T10:07:04;13.32;;;7.85;;
76292;SDS011;67256;51.154;4.164;2024-01-30T10:09:34;10.75;;;6.10;;
76292;SDS011;67256;51.154;4.164;2024-01-30T10:11:59;16.97;;;6.40;;
76292;SDS011;67256;51.154;4.164;2024-01-30T10:14:26;12.98;;;6.07;;
76292;SDS011;67256;51.154;4.164;2024-01-30T10:16:52;9.88;;;6.28;;
76292;SDS011;67256;51.154;4.164;2024-01-30T10:19:20;9.48;;;5.03;;
76292;SDS011;67256;51.154;4.164;2024-01-30T10:21:46;11.23;;;4.70;;
76292;SDS011;67256;51.154;4.164;2024-01-30T10:24:13;8.52;;;3.72;;
76292;SDS011;67256;51.154;4.164;2024-01-30T10:26:39;9.20;;;2.80;;
76292;SDS011;67256;51.154;4.164;2024-01-30T10:29:04;5.72;;;1.88;;
76292;SDS011;67256;51.154;4.164;2024-01-30T10:31:30;5.53;;;2.20;;
76292;SDS011;67256;51.154;4.164;2024-01-30T10:33:56;5.78;;;2.20;;
76292;SDS011;67256;51.154;4.164;2024-01-30T10:36:23;3.97;;;1.50;;
76292;SDS011;67256;51.154;4.164;2024-01-30T10:38:53;3.53;;;1.10;;
76292;SDS011;67256;51.154;4.164;2024-01-30T10:41:26;2.40;;;1.10;;
76292;SDS011;67256;51.154;4.164;2024-01-30T10:44:02;4.72;;;1.20;;
76292;SDS011;67256;51.154;4.164;2024-01-30T10:46:33;7.50;;;1.30;;
76292;SDS011;67256;51.154;4.164;2024-01-30T10:49:00;4.38;;;1.33;;
76292;SDS011;67256;51.154;4.164;2024-01-30T10:51:26;6.45;;;1.40;;
76292;SDS011;67256;51.154;4.164;2024-01-30T10:53:53;5.60;;;1.52;;
76292;SDS011;67256;51.154;4.164;2024-01-30T10:56:23;5.57;;;1.75;;
76292;SDS011;67256;51.154;4.164;2024-01-30T11:01:17;9.85;;;1.75;;
76292;SDS011;67256;51.154;4.164;2024-01-30T11:03:47;4.88;;;1.40;;
76292;SDS011;67256;51.154;4.164;2024-01-30T11:06:23;4.03;;;1.80;;
76292;SDS011;67256;51.154;4.164;2024-01-30T11:09:03;5.05;;;1.60;;
76292;SDS011;67256;51.154;4.164;2024-01-30T11:11:47;7.57;;;1.50;;
76292;SDS011;67256;51.154;4.164;2024-01-30T11:14:22;9.07;;;1.80;;
76292;SDS011;67256;51.154;4.164;2024-01-30T11:16:49;9.93;;;1.85;;
76292;SDS011;67256;51.154;4.164;2024-01-30T11:19:14;5.10;;;1.75;;
76292;SDS011;67256;51.154;4.164;2024-01-30T11:21:44;3.20;;;1.30;;
76292;SDS011;67256;51.154;4.164;2024-01-30T11:24:09;3.28;;;1.15;;
76292;SDS011;67256;51.154;4.164;2024-01-30T11:26:36;8.23;;;1.58;;
76292;SDS011;67256;51.154;4.164;2024-01-30T11:29:03;3.33;;;1.00;;
76292;SDS011;67256;51.154;4.164;2024-01-30T11:31:29;4.78;;;1.40;;
76292;SDS011;67256;51.154;4.164;2024-01-30T11:33:55;3.50;;;1.13;;
76292;SDS011;67256;51.154;4.164;2024-01-30T11:36:25;4.80;;;1.30;;
76292;SDS011;67256;51.154;4.164;2024-01-30T11:38:52;4.63;;;1.45;;
76292;SDS011;67256;51.154;4.164;2024-01-30T11:41:19;3.85;;;1.30;;
76292;SDS011;67256;51.154;4.164;2024-01-30T11:43:52;6.22;;;1.30;;
76292;SDS011;67256;51.154;4.164;2024-01-30T11:46:18;6.15;;;1.15;;
76292;SDS011;67256;51.154;4.164;2024-01-30T11:48:44;5.38;;;1.30;;
76292;SDS011;67256;51.154;4.164;2024-01-30T11:51:10;6.30;;;1.20;;
76292;SDS011;67256;51.154;4.164;2024-01-30T11:53:38;7.15;;;1.33;;
76292;SDS011;67256;51.154;4.164;2024-01-30T11:56:05;8.45;;;1.50;;
76292;SDS011;67256;51.154;4.164;2024-01-30T11:58:31;4.63;;;1.05;;
76292;SDS011;67256;51.154;4.164;2024-01-30T12:00:57;7.78;;;1.30;;
76292;SDS011;67256;51.154;4.164;2024-01-30T12:03:23;7.88;;;1.63;;
76292;SDS011;67256;51.154;4.164;2024-01-30T12:05:58;5.20;;;1.00;;
76292;SDS011;67256;51.154;4.164;2024-01-30T12:08:24;6.95;;;1.38;;
76292;SDS011;67256;51.154;4.164;2024-01-30T12:10:59;10.48;;;1.55;;
76292;SDS011;67256;51.154;4.164;2024-01-30T12:13:27;4.70;;;1.17;;
76292;SDS011;67256;51.154;4.164;2024-01-30T12:15:53;7.65;;;0.98;;
76292;SDS011;67256;51.154;4.164;2024-01-30T12:18:20;9.55;;;1.65;;
76292;SDS011;67256;51.154;4.164;2024-01-30T12:20:45;10.20;;;1.83;;
76292;SDS011;67256;51.154;4.164;2024-01-30T12:23:23;5.50;;;1.42;;
76292;SDS011;67256;51.154;4.164;2024-01-30T12:25:50;7.00;;;1.42;;
76292;SDS011;67256;51.154;4.164;2024-01-30T12:28:17;3.30;;;1.08;;
76292;SDS011;67256;51.154;4.164;2024-01-30T12:30:43;5.30;;;1.00;;
76292;SDS011;67256;51.154;4.164;2024-01-30T12:33:08;2.78;;;1.00;;
76292;SDS011;67256;51.154;4.164;2024-01-30T12:35:35;9.13;;;1.63;;
76292;SDS011;67256;51.154;4.164;2024-01-30T12:38:01;4.78;;;1.02;;
76292;SDS011;67256;51.154;4.164;2024-01-30T12:40:27;5.15;;;1.60;;
76292;SDS011;67256;51.154;4.164;2024-01-30T12:42:54;5.93;;;1.42;;
76292;SDS011;67256;51.154;4.164;2024-01-30T12:45:20;4.47;;;1.50;;
76292;SDS011;67256;51.154;4.164;2024-01-30T12:47:47;10.50;;;1.35;;
76292;SDS011;67256;51.154;4.164;2024-01-30T12:50:13;4.45;;;1.10;;
76292;SDS011;67256;51.154;4.164;2024-01-30T12:52:40;7.53;;;1.33;;
76292;SDS011;67256;51.154;4.164;2024-01-30T12:55:07;4.72;;;1.40;;
76292;SDS011;67256;51.154;4.164;2024-01-30T12:57:33;4.80;;;1.27;;
76292;SDS011;67256;51.154;4.164;2024-01-30T12:59:58;11.55;;;3.35;;
76292;SDS011;67256;51.154;4.164;2024-01-30T13:02:24;6.00;;;1.27;;
76292;SDS011;67256;51.154;4.164;2024-01-30T13:04:51;6.85;;;1.60;;
76292;SDS011;67256;51.154;4.164;2024-01-30T13:07:17;10.10;;;1.45;;
76292;SDS011;67256;51.154;4.164;2024-01-30T13:09:43;5.50;;;1.63;;
76292;SDS011;67256;51.154;4.164;2024-01-30T13:12:09;8.63;;;1.90;;
76292;SDS011;67256;51.154;4.164;2024-01-30T13:14:34;7.03;;;1.27;;
76292;SDS011;67256;51.154;4.164;2024-01-30T13:17:00;10.27;;;2.35;;
76292;SDS011;67256;51.154;4.164;2024-01-30T13:19:26;7.35;;;1.92;;
76292;SDS011;67256;51.154;4.164;2024-01-30T13:21:52;9.73;;;1.48;;
76292;SDS011;67256;51.154;4.164;2024-01-30T13:24:18;18.15;;;2.20;;
76292;SDS011;67256;51.154;4.164;2024-01-30T13:26:46;8.10;;;2.45;;
76292;SDS011;67256;51.154;4.164;2024-01-30T13:29:12;4.88;;;1.40;;
76292;SDS011;67256;51.154;4.164;2024-01-30T13:31:38;5.70;;;1.52;;
76292;SDS011;67256;51.154;4.164;2024-01-30T13:34:04;10.55;;;1.52;;
76292;SDS011;67256;51.154;4.164;2024-01-30T13:36:32;5.93;;;1.20;;
76292;SDS011;67256;51.154;4.164;2024-01-30T13:38:57;8.07;;;1.50;;
76292;SDS011;67256;51.154;4.164;2024-01-30T13:41:23;6.47;;;1.23;;
76292;SDS011;67256;51.154;4.164;2024-01-30T13:43:49;5.05;;;1.63;;
76292;SDS011;67256;51.154;4.164;2024-01-30T13:46:15;10.63;;;1.85;;
76292;SDS011;67256;51.154;4.164;2024-01-30T13:48:41;6.32;;;1.58;;
76292;SDS011;67256;51.154;4.164;2024-01-30T13:51:06;5.00;;;1.70;;
76292;SDS011;67256;51.154;4.164;2024-01-30T13:53:32;6.15;;;1.50;;
76292;SDS011;67256;51.154;4.164;2024-01-30T13:55:58;8.90;;;1.52;;
76292;SDS011;67256;51.154;4.164;2024-01-30T13:58:23;9.55;;;2.00;;
76292;SDS011;67256;51.154;4.164;2024-01-30T14:00:50;5.45;;;1.50;;
76292;SDS011;67256;51.154;4.164;2024-01-30T14:03:15;8.63;;;2.00;;
76292;SDS011;67256;51.154;4.164;2024-01-30T14:05:41;5.38;;;2.25;;
76292;SDS011;67256;51.154;4.164;2024-01-30T14:08:06;11.98;;;1.85;;
76292;SDS011;67256;51.154;4.164;2024-01-30T14:10:33;10.35;;;2.30;;
76292;SDS011;67256;51.154;4.164;2024-01-30T14:12:59;6.47;;;2.00;;
76292;SDS011;67256;51.154;4.164;2024-01-30T14:15:25;7.45;;;1.50;;
76292;SDS011;67256;51.154;4.164;2024-01-30T14:17:50;6.88;;;2.00;;
76292;SDS011;67256;51.154;4.164;2024-01-30T14:20:16;4.28;;;1.67;;
76292;SDS011;67256;51.154;4.164;2024-01-30T14:22:42;6.95;;;1.50;;
76292;SDS011;67256;51.154;4.164;2024-01-30T14:25:09;5.40;;;1.60;;
76292;SDS011;67256;51.154;4.164;2024-01-30T14:27:35;4.57;;;1.92;;
76292;SDS011;67256;51.154;4.164;2024-01-30T14:30:01;6.80;;;2.13;;
76292;SDS011;67256;51.154;4.164;2024-01-30T14:32:28;6.18;;;1.52;;
76292;SDS011;67256;51.154;4.164;2024-01-30T14:34:54;7.18;;;1.90;;
76292;SDS011;67256;51.154;4.164;2024-01-30T14:37:22;9.32;;;1.70;;
76292;SDS011;67256;51.154;4.164;2024-01-30T14:39:49;11.63;;;2.17;;
76292;SDS011;67256;51.154;4.164;2024-01-30T14:42:15;7.07;;;1.40;;